createdAt,value
2019-05-02T00:02:13.265Z,82.08
2019-05-02T00:04:59.241Z,82.23
2019-05-02T00:07:45.375Z,82.16
2019-05-02T00:10:31.775Z,82.08
2019-05-02T00:13:18.906Z,82.53
2019-05-02T00:16:09.091Z,82.34
2019-05-02T00:18:53.335Z,82.60
2019-05-02T00:21:42.957Z,82.62
2019-05-02T00:24:27.840Z,82.32
2019-05-02T00:27:13.880Z,82.05
2019-05-02T00:30:00.397Z,81.75
2019-05-02T00:32:46.640Z,81.70
2019-05-02T00:35:32.930Z,81.82
2019-05-02T00:38:19.121Z,81.74
2019-05-02T00:41:04.941Z,81.69
2019-05-02T00:43:51.131Z,81.83
2019-05-02T00:46:37.315Z,81.52
2019-05-02T00:49:23.515Z,81.53
2019-05-02T00:52:09.520Z,81.65
2019-05-02T00:54:58.725Z,81.75
2019-05-02T00:57:43.764Z,81.75
2019-05-02T01:00:32.485Z,81.60
2019-05-02T01:03:18.883Z,81.49
2019-05-02T01:06:04.900Z,81.75
2019-05-02T01:08:51.010Z,81.89
2019-05-02T01:11:37.168Z,81.89
2019-05-02T01:14:27.171Z,81.79
2019-05-02T01:17:11.280Z,81.98
2019-05-02T01:19:57.565Z,82.15
2019-05-02T01:22:47.083Z,82.39
2019-05-02T01:25:31.695Z,82.47
2019-05-02T01:28:36.050Z,82.46
2019-05-02T01:31:31.960Z,82.62
2019-05-02T01:34:33.890Z,82.64
2019-05-02T01:37:24.280Z,82.77
2019-05-02T01:40:12.943Z,82.80
2019-05-02T01:43:03.971Z,82.87
2019-05-02T01:45:50.136Z,83.04
2019-05-02T01:48:40.172Z,83.11
2019-05-02T01:51:24.440Z,83.20
2019-05-02T01:54:11.475Z,83.04
2019-05-02T01:56:57.660Z,83.38
2019-05-02T01:59:43.790Z,83.68
2019-05-02T02:02:32.895Z,83.79
2019-05-02T02:05:18.138Z,83.99
2019-05-02T02:08:04.601Z,84.13
2019-05-02T02:10:55.894Z,83.84
2019-05-02T02:13:38.276Z,84.00
2019-05-02T02:16:24.610Z,84.02
2019-05-02T02:19:22.268Z,84.06
2019-05-02T02:22:19.484Z,83.89
2019-05-02T02:25:25.704Z,84.00
2019-05-02T02:28:11.875Z,83.87
2019-05-02T02:31:04.804Z,83.69
2019-05-02T02:33:48.024Z,83.94
2019-05-02T02:36:35.046Z,84.03
2019-05-02T02:39:21.654Z,83.90
2019-05-02T02:42:07.882Z,83.59
2019-05-02T02:45:03.296Z,83.71
2019-05-02T02:47:53.034Z,83.66
2019-05-02T02:50:43.176Z,83.56
2019-05-02T02:53:31.443Z,83.17
2019-05-02T02:56:18.048Z,82.89
2019-05-02T02:59:04.076Z,82.74
2019-05-02T03:01:50.280Z,82.32
2019-05-02T03:04:36.455Z,82.78
2019-05-02T03:07:26.035Z,82.70
2019-05-02T03:10:10.840Z,82.46
2019-05-02T03:13:21.475Z,82.33
2019-05-02T03:16:07.029Z,82.05
2019-05-02T03:18:51.896Z,82.12
2019-05-02T03:21:41.425Z,82.49
2019-05-02T03:24:27.382Z,82.30
2019-05-02T03:27:14.091Z,82.67
2019-05-02T03:30:00.277Z,82.96
2019-05-02T03:33:03.714Z,82.75
2019-05-02T03:35:43.380Z,82.81
2019-05-02T03:38:31.030Z,83.00
2019-05-02T03:41:13.534Z,82.87
2019-05-02T03:44:10.552Z,82.92
2019-05-02T03:46:54.530Z,82.83
2019-05-02T03:49:40.738Z,82.67
2019-05-02T03:52:24.719Z,82.55
2019-05-02T03:55:10.816Z,82.60
2019-05-02T03:57:56.872Z,82.65
2019-05-02T04:00:43.225Z,82.44
2019-05-02T04:03:34.326Z,82.18
2019-05-02T04:06:21.309Z,82.44
2019-05-02T04:09:06.946Z,82.25
2019-05-02T04:11:52.788Z,82.02
2019-05-02T04:14:39.715Z,81.96
2019-05-02T04:17:28.684Z,81.78
2019-05-02T04:20:13.980Z,81.55
2019-05-02T04:23:00.641Z,81.84
2019-05-02T04:25:47.952Z,81.82
2019-05-02T04:28:34.175Z,82.11
2019-05-02T04:31:25.040Z,83.69
2019-05-02T04:34:15.157Z,83.52
2019-05-02T04:37:01.071Z,82.28
2019-05-02T04:39:44.718Z,82.66
2019-05-02T04:42:30.960Z,82.50
2019-05-02T04:45:26.412Z,82.23
2019-05-02T04:48:08.149Z,82.10
2019-05-02T04:51:02.010Z,81.86
2019-05-02T04:53:45.230Z,81.78
2019-05-02T04:56:29.446Z,81.33
2019-05-02T04:59:19.966Z,81.49
2019-05-02T05:02:03.850Z,81.28
2019-05-02T05:04:49.813Z,81.62
2019-05-02T05:07:43.605Z,81.65
2019-05-02T05:10:23.924Z,81.23
2019-05-02T05:13:12.058Z,81.23
2019-05-02T05:15:58.146Z,81.43
2019-05-02T05:18:51.270Z,80.86
2019-05-02T05:21:32.535Z,81.49
2019-05-02T05:24:50.283Z,81.20
2019-05-02T05:27:37.699Z,81.02
2019-05-02T05:30:23.966Z,81.49
2019-05-02T05:33:10.433Z,81.29
2019-05-02T05:35:57.816Z,80.91
2019-05-02T05:38:44.077Z,80.56
2019-05-02T05:41:30.195Z,80.69
2019-05-02T05:44:18.090Z,80.37
2019-05-02T05:47:04.594Z,80.63
2019-05-02T05:49:52.372Z,80.55
2019-05-02T05:52:42.428Z,80.32
2019-05-02T05:55:28.158Z,80.39
2019-05-02T05:58:15.777Z,80.39
2019-05-02T06:01:03.040Z,80.21
2019-05-02T06:03:49.209Z,80.21
2019-05-02T06:06:37.747Z,80.37
2019-05-02T06:09:26.284Z,80.37
2019-05-02T06:12:13.155Z,80.35
2019-05-02T06:15:03.606Z,80.36
2019-05-02T06:17:47.660Z,80.40
2019-05-02T06:20:33.665Z,80.17
2019-05-02T06:23:19.996Z,80.05
2019-05-02T06:26:07.966Z,79.50
2019-05-02T06:28:54.321Z,79.52
2019-05-02T06:31:43.052Z,79.89
2019-05-02T06:34:28.766Z,79.34
2019-05-02T06:37:15.459Z,79.20
2019-05-02T06:40:03.116Z,79.36
2019-05-02T06:42:49.795Z,79.61
2019-05-02T06:45:37.593Z,79.33
2019-05-02T06:48:23.930Z,78.79
2019-05-02T06:51:17.111Z,78.83
2019-05-02T06:53:58.228Z,78.72
2019-05-02T06:56:47.885Z,79.09
2019-05-02T06:59:32.679Z,79.05
2019-05-02T07:02:18.915Z,79.47
2019-05-02T07:05:05.170Z,79.44
2019-05-02T07:07:51.828Z,79.17
2019-05-02T07:10:44.778Z,79.80
2019-05-02T07:13:26.360Z,79.86
2019-05-02T07:16:38.388Z,79.82
2019-05-02T07:19:34.681Z,79.79
2019-05-02T07:22:21.370Z,80.08
2019-05-02T07:25:08.916Z,80.24
2019-05-02T07:27:55.815Z,79.67
2019-05-02T07:30:41.813Z,79.67
2019-05-02T07:33:32.394Z,80.28
2019-05-02T07:36:16.149Z,80.12
2019-05-02T07:39:06.264Z,80.61
2019-05-02T07:41:51.931Z,80.47
2019-05-02T07:44:37.963Z,80.06
2019-05-02T07:47:24.260Z,80.22
2019-05-02T07:50:11.770Z,79.88
2019-05-02T07:52:58.175Z,79.87
2019-05-02T07:55:44.350Z,79.31
2019-05-02T07:58:30.526Z,78.91
2019-05-02T08:01:16.590Z,78.77
2019-05-02T08:04:04.758Z,79.16
2019-05-02T08:06:50.984Z,79.17
2019-05-02T08:09:39.178Z,79.44
2019-05-02T08:12:25.155Z,79.81
2019-05-02T08:15:13.122Z,79.54
2019-05-02T08:17:59.413Z,79.26
2019-05-02T08:20:45.750Z,79.67
2019-05-02T08:23:31.624Z,78.71
2019-05-02T08:26:21.717Z,78.35
2019-05-02T08:29:07.925Z,77.83
2019-05-02T08:31:54.304Z,76.79
2019-05-02T08:34:40.439Z,75.62
2019-05-02T08:37:26.812Z,75.81
2019-05-02T08:40:13.193Z,76.02
2019-05-02T08:43:03.477Z,76.22
2019-05-02T08:45:47.301Z,75.98
2019-05-02T08:48:36.450Z,76.25
2019-05-02T08:51:22.674Z,76.03
2019-05-02T08:54:08.780Z,75.82
2019-05-02T08:56:58.798Z,74.42
2019-05-02T08:59:43.296Z,74.01
2019-05-02T09:02:40.807Z,73.01
2019-05-02T09:05:17.138Z,72.76
2019-05-02T09:08:02.996Z,71.85
2019-05-02T09:10:49.172Z,71.11
2019-05-02T09:13:35.526Z,71.03
2019-05-02T09:16:28.807Z,71.57
2019-05-02T09:19:13.492Z,70.78
2019-05-02T09:21:58.179Z,70.81
2019-05-02T09:24:44.965Z,69.94
2019-05-02T09:27:31.886Z,70.00
2019-05-02T09:30:22.755Z,70.06
2019-05-02T09:33:07.609Z,69.32
2019-05-02T09:35:53.680Z,66.89
2019-05-02T09:38:42.486Z,66.68
2019-05-02T09:41:34.496Z,65.94
2019-05-02T09:44:18.698Z,63.35
2019-05-02T09:47:04.907Z,61.28
2019-05-02T09:50:07.255Z,62.61
2019-05-02T09:52:53.501Z,65.10
2019-05-02T09:55:42.333Z,64.59
2019-05-02T09:58:27.726Z,62.56
2019-05-02T10:01:22.391Z,62.76
2019-05-02T10:04:11.859Z,61.85
2019-05-02T10:06:57.966Z,61.79
2019-05-02T10:09:44.076Z,61.16
2019-05-02T10:12:32.007Z,62.64
2019-05-02T10:15:18.685Z,62.62
2019-05-02T10:18:10.699Z,63.47
2019-05-02T10:20:53.106Z,63.17
2019-05-02T10:23:39.429Z,62.05
2019-05-02T10:26:25.674Z,61.23
2019-05-02T10:29:12.768Z,60.89
2019-05-02T10:31:59.031Z,62.01
2019-05-02T10:34:47.492Z,62.23
2019-05-02T10:37:38.270Z,62.73
2019-05-02T10:40:22.566Z,61.63
2019-05-02T10:43:11.532Z,60.07
2019-05-02T10:46:03.013Z,59.62
2019-05-02T10:48:55.920Z,59.79
2019-05-02T10:51:49.046Z,60.27
2019-05-02T10:54:33.870Z,60.88
2019-05-02T10:57:18.335Z,60.37
2019-05-02T11:00:06.755Z,59.08
2019-05-02T11:03:03.245Z,60.01
2019-05-02T11:05:57.980Z,58.91
2019-05-02T11:08:45.841Z,59.65
2019-05-02T11:11:30.006Z,58.99
2019-05-02T11:14:25.911Z,58.76
2019-05-02T11:17:28.735Z,58.14
2019-05-02T11:20:15.315Z,58.04
2019-05-02T11:23:04.896Z,59.15
2019-05-02T11:25:52.633Z,58.87
2019-05-02T11:28:38.942Z,58.64
2019-05-02T11:31:25.175Z,57.91
2019-05-02T11:34:12.309Z,58.78
2019-05-02T11:36:59.016Z,59.93
2019-05-02T11:39:50.633Z,58.32
2019-05-02T11:42:33.595Z,58.40
2019-05-02T11:45:19.795Z,57.34
2019-05-02T11:48:09.116Z,58.36
2019-05-02T11:50:54.295Z,57.63
2019-05-02T11:53:42.002Z,55.73
2019-05-02T11:56:28.394Z,56.09
2019-05-02T11:59:15.555Z,56.64
2019-05-02T12:02:23.575Z,57.29
2019-05-02T12:05:12.786Z,56.71
2019-05-02T12:08:02.610Z,56.56
2019-05-02T12:10:47.094Z,54.79
2019-05-02T12:13:33.415Z,55.00
2019-05-02T12:16:20.095Z,55.73
2019-05-02T12:19:11.757Z,56.56
2019-05-02T12:21:55.155Z,56.10
2019-05-02T12:24:45.342Z,53.25
2019-05-02T12:27:31.747Z,53.35
2019-05-02T12:30:17.936Z,53.18
2019-05-02T12:33:04.295Z,53.89
2019-05-02T12:35:52.311Z,54.40
2019-05-02T12:38:38.669Z,53.08
2019-05-02T12:41:26.438Z,53.76
2019-05-02T12:44:13.456Z,54.63
2019-05-02T12:46:59.975Z,54.16
2019-05-02T12:49:46.382Z,53.90
2019-05-02T12:52:32.575Z,53.48
2019-05-02T12:55:18.894Z,52.40
2019-05-02T12:58:05.198Z,52.11
2019-05-02T13:00:53.085Z,52.95
2019-05-02T13:04:03.375Z,52.86
2019-05-02T13:06:49.762Z,52.61
2019-05-02T13:09:35.895Z,51.67
2019-05-02T13:12:27.395Z,52.46
2019-05-02T13:15:14.554Z,53.54
2019-05-02T13:18:03.009Z,53.98
2019-05-02T13:20:49.255Z,54.05
2019-05-02T13:23:45.658Z,54.29
2019-05-02T13:26:32.130Z,53.33
2019-05-02T13:29:18.784Z,53.63
2019-05-02T13:32:21.768Z,54.32
2019-05-02T13:35:17.561Z,55.40
2019-05-02T13:38:06.156Z,55.01
2019-05-02T13:40:52.563Z,55.91
2019-05-02T13:43:45.375Z,56.09
2019-05-02T13:46:32.227Z,56.52
2019-05-02T13:49:18.795Z,56.60
2019-05-02T13:52:05.094Z,55.77
2019-05-02T13:54:52.272Z,55.95
2019-05-02T13:57:43.129Z,55.99
2019-05-02T14:00:34.165Z,56.11
2019-05-02T14:03:22.608Z,56.50
2019-05-02T14:06:08.663Z,56.93
2019-05-02T14:09:02.883Z,57.13
2019-05-02T14:11:57.575Z,56.89
2019-05-02T14:14:44.134Z,57.54
2019-05-02T14:17:30.235Z,57.41
2019-05-02T14:20:18.815Z,57.05
2019-05-02T14:23:05.139Z,57.51
2019-05-02T14:25:52.182Z,57.69
2019-05-02T14:28:38.635Z,58.24
2019-05-02T14:31:25.555Z,58.79
2019-05-02T14:34:29.995Z,59.42
2019-05-02T14:37:16.695Z,60.00
2019-05-02T14:40:15.382Z,59.79
2019-05-02T14:43:03.422Z,61.16
2019-05-02T14:45:50.900Z,64.64
2019-05-02T14:48:45.245Z,68.28
2019-05-02T14:51:33.809Z,73.78
2019-05-02T14:54:20.235Z,77.91
2019-05-02T14:57:21.506Z,78.05
2019-05-02T15:00:06.377Z,78.77
2019-05-02T15:02:52.584Z,79.34
2019-05-02T15:05:38.835Z,79.62
2019-05-02T15:08:25.415Z,78.16
2019-05-02T15:11:12.564Z,78.09
2019-05-02T15:13:59.276Z,78.32
2019-05-02T15:16:45.452Z,77.48
2019-05-02T15:19:32.892Z,78.18
2019-05-02T15:22:19.795Z,77.55
2019-05-02T15:25:07.967Z,77.62
2019-05-02T15:27:58.781Z,77.48
2019-05-02T15:30:49.285Z,76.87
2019-05-02T15:33:34.958Z,76.68
2019-05-02T15:36:22.118Z,77.61
2019-05-02T15:41:58.376Z,79.62
2019-05-02T15:44:46.727Z,80.27
2019-05-02T15:47:37.014Z,81.25
2019-05-02T15:50:23.801Z,81.95
2019-05-02T15:53:32.512Z,82.05
2019-05-02T15:56:21.351Z,82.69
2019-05-02T15:59:07.499Z,82.77
2019-05-02T16:01:56.295Z,83.20
2019-05-02T16:04:43.315Z,83.27
2019-05-02T16:07:29.735Z,82.67
2019-05-02T16:10:16.055Z,82.33
2019-05-02T16:13:03.719Z,82.32
2019-05-02T16:15:52.646Z,80.91
2019-05-02T16:18:41.104Z,82.17
2019-05-02T16:21:42.725Z,83.27
2019-05-02T16:24:29.515Z,82.09
2019-05-02T16:27:16.336Z,82.53
2019-05-02T16:30:07.546Z,83.14
2019-05-02T16:32:55.415Z,83.10
2019-05-02T16:35:42.066Z,83.36
2019-05-02T16:38:32.396Z,83.83
2019-05-02T16:41:16.655Z,84.29
2019-05-02T16:44:03.355Z,83.51
2019-05-02T16:46:49.435Z,83.89
2019-05-02T16:49:35.615Z,83.60
2019-05-02T16:52:22.270Z,83.95
2019-05-02T16:55:13.711Z,84.22
2019-05-02T16:58:05.179Z,83.85
2019-05-02T17:00:46.019Z,83.49
2019-05-02T17:03:32.434Z,83.86
2019-05-02T17:06:22.467Z,82.91
2019-05-02T17:09:42.516Z,83.14
2019-05-02T17:12:28.915Z,83.42
2019-05-02T17:15:35.628Z,83.05
2019-05-02T17:18:22.830Z,83.33
2019-05-02T17:21:09.177Z,83.03
2019-05-02T17:23:55.415Z,83.27
2019-05-02T17:26:42.289Z,82.55
2019-05-02T17:29:28.675Z,82.52
2019-05-02T17:32:16.096Z,82.41
2019-05-02T17:35:09.609Z,83.68
2019-05-02T17:37:52.454Z,83.00
2019-05-02T17:40:38.915Z,83.23
2019-05-02T17:43:25.795Z,82.94
2019-05-02T17:46:12.551Z,83.41
2019-05-02T17:49:02.420Z,83.93
2019-05-02T17:52:12.250Z,84.55
2019-05-02T17:54:57.315Z,84.37
2019-05-02T17:57:42.958Z,85.00
2019-05-02T18:00:33.429Z,85.32
2019-05-02T18:03:24.234Z,85.27
2019-05-02T18:06:13.250Z,84.78
2019-05-02T18:08:57.979Z,85.15
2019-05-02T18:11:44.177Z,85.42
2019-05-02T18:14:30.695Z,85.55
2019-05-02T18:17:17.195Z,85.73
2019-05-02T18:20:06.159Z,85.81
2019-05-02T18:22:52.975Z,86.07
2019-05-02T18:25:39.875Z,86.16
2019-05-02T18:28:26.661Z,86.28
2019-05-02T18:31:13.215Z,86.62
2019-05-02T18:34:01.641Z,86.20
2019-05-02T18:36:48.674Z,86.06
2019-05-02T18:39:45.268Z,86.16
2019-05-02T18:42:25.623Z,85.73
2019-05-02T18:45:16.575Z,85.59
2019-05-02T18:48:06.687Z,85.77
2019-05-02T18:50:52.613Z,85.71
2019-05-02T18:53:39.755Z,85.63
2019-05-02T18:56:27.235Z,85.82
2019-05-02T18:59:14.152Z,85.63
2019-05-02T19:02:02.661Z,85.97
2019-05-02T19:04:49.230Z,85.43
2019-05-02T19:07:35.948Z,85.55
2019-05-02T19:10:22.715Z,85.07
2019-05-02T19:13:09.306Z,84.99
2019-05-02T19:15:55.856Z,85.49
2019-05-02T19:18:42.875Z,85.45
2019-05-02T19:21:31.937Z,85.53
2019-05-02T19:24:18.635Z,85.63
2019-05-02T19:27:06.237Z,85.67
2019-05-02T19:29:54.755Z,85.69
2019-05-02T19:32:41.756Z,85.86
2019-05-02T19:35:28.819Z,86.23
2019-05-02T19:38:17.066Z,86.00
2019-05-02T19:41:08.700Z,86.00
2019-05-02T19:43:53.381Z,86.06
2019-05-02T19:46:42.202Z,86.19
2019-05-02T19:49:28.980Z,86.21
2019-05-02T19:52:15.675Z,86.17
2019-05-02T19:55:02.295Z,85.92
2019-05-02T19:57:48.976Z,85.85
2019-05-02T20:00:36.531Z,85.49
2019-05-02T20:03:26.184Z,85.80
2019-05-02T20:06:13.003Z,85.73
2019-05-02T20:09:06.761Z,85.62
2019-05-02T20:11:48.575Z,85.94
2019-05-02T20:14:38.150Z,86.21
2019-05-02T20:17:24.164Z,86.53
2019-05-02T20:20:35.914Z,86.55
2019-05-02T20:23:28.588Z,86.49
2019-05-02T20:26:15.248Z,86.59
2019-05-02T20:28:59.096Z,86.63
2019-05-02T20:31:45.555Z,86.84
2019-05-02T20:34:32.520Z,86.81
2019-05-02T20:37:22.155Z,86.80
2019-05-02T20:40:23.415Z,86.97
2019-05-02T20:43:09.735Z,86.95
2019-05-02T20:45:56.435Z,86.78
2019-05-02T20:48:42.555Z,86.92
2019-05-02T20:51:28.638Z,87.08
2019-05-02T20:54:14.806Z,87.27
2019-05-02T20:57:02.450Z,87.42
2019-05-02T20:59:49.056Z,87.54
2019-05-02T21:02:35.296Z,87.50
2019-05-02T21:05:24.526Z,87.26
2019-05-02T21:08:26.416Z,87.22
2019-05-02T21:11:12.777Z,87.08
2019-05-02T21:13:59.237Z,86.77
2019-05-02T21:16:45.695Z,86.20
2019-05-02T21:19:32.353Z,85.64
2019-05-02T21:22:22.716Z,85.00
2019-05-02T21:25:09.314Z,84.34
2019-05-02T21:27:56.735Z,83.68
2019-05-02T21:30:43.076Z,82.70
2019-05-02T21:33:36.115Z,82.43
2019-05-02T21:36:22.789Z,82.69
2019-05-02T21:39:12.005Z,82.82
2019-05-02T21:41:58.155Z,82.96
2019-05-02T21:44:44.815Z,83.21
2019-05-02T21:47:31.879Z,83.41
2019-05-02T21:50:43.894Z,83.76
2019-05-02T21:53:56.036Z,83.75
2019-05-02T21:56:46.390Z,83.43
2019-05-02T21:59:34.875Z,82.79
2019-05-02T22:02:22.666Z,83.28
2019-05-02T22:05:09.201Z,83.12
2019-05-02T22:07:55.280Z,82.76
2019-05-02T22:10:42.671Z,82.81
2019-05-02T22:13:29.150Z,83.05
2019-05-02T22:16:15.173Z,82.21
2019-05-02T22:19:02.861Z,81.29
2019-05-02T22:21:49.406Z,81.56
2019-05-02T22:24:35.528Z,80.35
2019-05-02T22:27:21.923Z,79.44
2019-05-02T22:30:08.191Z,79.05
2019-05-02T22:32:54.320Z,79.38
2019-05-02T22:35:43.160Z,78.84
2019-05-02T22:38:39.140Z,77.73
2019-05-02T22:41:25.277Z,76.43
2019-05-02T22:44:12.482Z,76.08
2019-05-02T22:46:58.786Z,75.82
2019-05-02T22:49:44.940Z,75.40
2019-05-02T22:52:32.239Z,76.18
2019-05-02T22:55:18.560Z,76.44
2019-05-02T22:58:04.968Z,76.61
2019-05-02T23:00:52.240Z,76.68
2019-05-02T23:03:38.420Z,76.52
2019-05-02T23:06:24.675Z,77.09
2019-05-02T23:09:12.725Z,77.82
2019-05-02T23:11:58.840Z,77.90
2019-05-02T23:14:44.920Z,77.74
2019-05-02T23:17:32.160Z,77.13
2019-05-02T23:20:18.540Z,77.60
2019-05-02T23:23:04.646Z,78.38
2019-05-02T23:26:16.164Z,79.25
2019-05-02T23:29:02.808Z,79.45
2019-05-02T23:31:49.240Z,80.95
2019-05-02T23:34:35.305Z,81.55
2019-05-02T23:37:21.525Z,82.38
2019-05-02T23:40:07.800Z,82.55
2019-05-02T23:42:53.771Z,83.43
2019-05-02T23:45:42.177Z,83.07
2019-05-02T23:48:28.362Z,83.40
2019-05-02T23:51:14.410Z,83.80
2019-05-02T23:54:02.056Z,83.10
2019-05-02T23:56:48.480Z,82.78
2019-05-02T23:59:34.528Z,82.78
